sensor_id;sensor_type;location;lat;lon;timestamp;temperature;humidity
15184;DHT22;7693;49.266;7.104;2023-04-06T04:11:34;0.90;91.20
15184;DHT22;7693;49.266;7.104;2023-04-06T04:14:00;0.90;91.70
15184;DHT22;7693;49.266;7.104;2023-04-06T04:16:25;0.90;92.00
15184;DHT22;7693;49.266;7.104;2023-04-06T04:18:51;0.90;92.20
15184;DHT22;7693;49.266;7.104;2023-04-06T04:21:17;1.00;92.60
15184;DHT22;7693;49.266;7.104;2023-04-06T04:23:42;1.00;92.40
15184;DHT22;7693;49.266;7.104;2023-04-06T04:26:08;1.00;92.50
15184;DHT22;7693;49.266;7.104;2023-04-06T04:28:34;1.00;92.60
15184;DHT22;7693;49.266;7.104;2023-04-06T04:30:59;1.10;92.70
15184;DHT22;7693;49.266;7.104;2023-04-06T04:33:25;1.10;92.80
15184;DHT22;7693;49.266;7.104;2023-04-06T04:35:50;1.10;92.80
15184;DHT22;7693;49.266;7.104;2023-04-06T04:38:16;1.10;92.90
15184;DHT22;7693;49.266;7.104;2023-04-06T04:40:42;1.10;92.90
15184;DHT22;7693;49.266;7.104;2023-04-06T04:43:07;1.10;93.00
15184;DHT22;7693;49.266;7.104;2023-04-06T04:45:33;1.10;93.00
15184;DHT22;7693;49.266;7.104;2023-04-06T04:47:59;1.10;93.10
15184;DHT22;7693;49.266;7.104;2023-04-06T04:50:25;1.10;93.20
15184;DHT22;7693;49.266;7.104;2023-04-06T04:52:50;1.10;93.20
15184;DHT22;7693;49.266;7.104;2023-04-06T04:55:16;1.10;93.20
15184;DHT22;7693;49.266;7.104;2023-04-06T04:57:42;1.10;93.20
15184;DHT22;7693;49.266;7.104;2023-04-06T05:00:09;1.00;93.40
15184;DHT22;7693;49.266;7.104;2023-04-06T05:02:34;1.00;93.40
15184;DHT22;7693;49.266;7.104;2023-04-06T05:05:00;1.00;93.40
15184;DHT22;7693;49.266;7.104;2023-04-06T05:07:26;1.00;93.50
15184;DHT22;7693;49.266;7.104;2023-04-06T05:09:52;1.00;93.60
15184;DHT22;7693;49.266;7.104;2023-04-06T05:12:18;1.00;93.60
15184;DHT22;7693;49.266;7.104;2023-04-06T05:14:44;1.00;93.70
15184;DHT22;7693;49.266;7.104;2023-04-06T05:17:10;1.00;93.80
15184;DHT22;7693;49.266;7.104;2023-04-06T05:19:36;1.00;93.90
15184;DHT22;7693;49.266;7.104;2023-04-06T05:22:02;1.00;94.00
15184;DHT22;7693;49.266;7.104;2023-04-06T05:24:27;1.00;94.00
15184;DHT22;7693;49.266;7.104;2023-04-06T05:26:53;1.00;94.20
15184;DHT22;7693;49.266;7.104;2023-04-06T05:29:19;1.10;94.60
15184;DHT22;7693;49.266;7.104;2023-04-06T05:31:45;1.10;94.30
15184;DHT22;7693;49.266;7.104;2023-04-06T05:34:11;1.20;94.40
15184;DHT22;7693;49.266;7.104;2023-04-06T05:36:38;1.30;94.60
15184;DHT22;7693;49.266;7.104;2023-04-06T05:39:04;1.30;94.60
15184;DHT22;7693;49.266;7.104;2023-04-06T05:41:29;1.40;94.70
15184;DHT22;7693;49.266;7.104;2023-04-06T05:43:55;1.40;94.80
15184;DHT22;7693;49.266;7.104;2023-04-06T05:46:21;1.40;94.80
15184;DHT22;7693;49.266;7.104;2023-04-06T05:48:46;1.40;94.90
15184;DHT22;7693;49.266;7.104;2023-04-06T05:51:12;1.50;95.00
15184;DHT22;7693;49.266;7.104;2023-04-06T05:53:38;1.60;95.10
15184;DHT22;7693;49.266;7.104;2023-04-06T05:56:04;1.60;95.10
15184;DHT22;7693;49.266;7.104;2023-04-06T05:58:29;1.60;95.00
15184;DHT22;7693;49.266;7.104;2023-04-06T06:00:59;1.60;95.10
15184;DHT22;7693;49.266;7.104;2023-04-06T06:03:25;1.60;95.30
15184;DHT22;7693;49.266;7.104;2023-04-06T06:05:51;1.60;95.40
15184;DHT22;7693;49.266;7.104;2023-04-06T06:08:16;1.70;95.60
15184;DHT22;7693;49.266;7.104;2023-04-06T06:10:42;1.80;95.70
15184;DHT22;7693;49.266;7.104;2023-04-06T06:13:08;1.90;96.00
15184;DHT22;7693;49.266;7.104;2023-04-06T06:15:34;2.00;96.20
15184;DHT22;7693;49.266;7.104;2023-04-06T06:18:00;2.10;96.20
15184;DHT22;7693;49.266;7.104;2023-04-06T06:20:26;2.30;96.40
15184;DHT22;7693;49.266;7.104;2023-04-06T06:22:52;2.40;96.50
15184;DHT22;7693;49.266;7.104;2023-04-06T06:25:17;2.50;96.60
15184;DHT22;7693;49.266;7.104;2023-04-06T06:27:43;2.60;96.80
15184;DHT22;7693;49.266;7.104;2023-04-06T06:30:09;2.80;97.00
15184;DHT22;7693;49.266;7.104;2023-04-06T06:32:35;2.90;97.10
15184;DHT22;7693;49.266;7.104;2023-04-06T06:35:01;3.10;97.30
15184;DHT22;7693;49.266;7.104;2023-04-06T06:37:26;3.30;97.20
15184;DHT22;7693;49.266;7.104;2023-04-06T06:39:52;3.40;97.40
15184;DHT22;7693;49.266;7.104;2023-04-06T06:42:18;3.70;97.70
15184;DHT22;7693;49.266;7.104;2023-04-06T06:44:46;3.80;97.80
15184;DHT22;7693;49.266;7.104;2023-04-06T06:47:12;4.00;97.60
15184;DHT22;7693;49.266;7.104;2023-04-06T06:49:38;4.10;97.50
15184;DHT22;7693;49.266;7.104;2023-04-06T06:52:03;4.20;97.50
15184;DHT22;7693;49.266;7.104;2023-04-06T06:54:29;4.30;97.70
15184;DHT22;7693;49.266;7.104;2023-04-06T06:56:55;4.40;97.60
15184;DHT22;7693;49.266;7.104;2023-04-06T06:59:21;4.50;97.60
15184;DHT22;7693;49.266;7.104;2023-04-06T07:01:46;4.60;97.50
15184;DHT22;7693;49.266;7.104;2023-04-06T07:04:12;4.70;97.60
15184;DHT22;7693;49.266;7.104;2023-04-06T07:06:37;4.80;97.60
15184;DHT22;7693;49.266;7.104;2023-04-06T07:09:03;4.80;97.50
15184;DHT22;7693;49.266;7.104;2023-04-06T07:11:29;4.90;97.60
15184;DHT22;7693;49.266;7.104;2023-04-06T07:13:55;4.90;97.50
15184;DHT22;7693;49.266;7.104;2023-04-06T07:16:21;5.00;97.70
15184;DHT22;7693;49.266;7.104;2023-04-06T07:18:47;5.10;97.70
15184;DHT22;7693;49.266;7.104;2023-04-06T07:21:13;5.10;97.70
15184;DHT22;7693;49.266;7.104;2023-04-06T07:23:38;5.20;97.90
15184;DHT22;7693;49.266;7.104;2023-04-06T07:26:04;5.30;98.00
15184;DHT22;7693;49.266;7.104;2023-04-06T07:28:30;5.40;98.20
15184;DHT22;7693;49.266;7.104;2023-04-06T07:30:55;5.60;98.20
15184;DHT22;7693;49.266;7.104;2023-04-06T07:33:21;5.60;98.20
15184;DHT22;7693;49.266;7.104;2023-04-06T07:35:47;5.80;98.20
15184;DHT22;7693;49.266;7.104;2023-04-06T07:38:13;5.80;98.10
15184;DHT22;7693;49.266;7.104;2023-04-06T07:40:39;5.90;98.30
15184;DHT22;7693;49.266;7.104;2023-04-06T07:43:04;6.10;98.40
15184;DHT22;7693;49.266;7.104;2023-04-06T07:45:30;6.20;98.50
15184;DHT22;7693;49.266;7.104;2023-04-06T07:47:56;6.30;98.50
15184;DHT22;7693;49.266;7.104;2023-04-06T07:50:21;6.40;98.50
15184;DHT22;7693;49.266;7.104;2023-04-06T07:52:47;6.60;98.70
15184;DHT22;7693;49.266;7.104;2023-04-06T07:55:13;6.70;98.80
15184;DHT22;7693;49.266;7.104;2023-04-06T07:57:38;6.90;98.90
15184;DHT22;7693;49.266;7.104;2023-04-06T08:00:07;7.10;98.80
15184;DHT22;7693;49.266;7.104;2023-04-06T08:02:35;7.20;98.60
15184;DHT22;7693;49.266;7.104;2023-04-06T08:05:00;7.30;98.60
15184;DHT22;7693;49.266;7.104;2023-04-06T08:07:26;7.40;98.40
15184;DHT22;7693;49.266;7.104;2023-04-06T08:09:52;7.50;98.50
15184;DHT22;7693;49.266;7.104;2023-04-06T08:12:17;7.60;98.20
15184;DHT22;7693;49.266;7.104;2023-04-06T08:14:43;7.70;98.10
15184;DHT22;7693;49.266;7.104;2023-04-06T08:17:09;7.70;97.90
15184;DHT22;7693;49.266;7.104;2023-04-06T08:19:34;7.80;97.80
15184;DHT22;7693;49.266;7.104;2023-04-06T08:22:00;7.80;97.80
15184;DHT22;7693;49.266;7.104;2023-04-06T08:24:26;7.90;98.00
15184;DHT22;7693;49.266;7.104;2023-04-06T08:26:52;8.00;97.80
15184;DHT22;7693;49.266;7.104;2023-04-06T08:29:18;8.00;97.50
15184;DHT22;7693;49.266;7.104;2023-04-06T08:31:44;8.10;97.60
15184;DHT22;7693;49.266;7.104;2023-04-06T08:34:09;8.20;97.60
15184;DHT22;7693;49.266;7.104;2023-04-06T08:36:35;8.20;97.70
15184;DHT22;7693;49.266;7.104;2023-04-06T08:39:01;8.30;97.60
15184;DHT22;7693;49.266;7.104;2023-04-06T08:41:27;8.40;97.50
15184;DHT22;7693;49.266;7.104;2023-04-06T08:44:01;8.50;97.40
15184;DHT22;7693;49.266;7.104;2023-04-06T08:46:28;8.50;97.30
15184;DHT22;7693;49.266;7.104;2023-04-06T08:48:58;8.60;97.00
15184;DHT22;7693;49.266;7.104;2023-04-06T08:51:24;8.60;97.00
15184;DHT22;7693;49.266;7.104;2023-04-06T08:53:52;8.60;97.10
15184;DHT22;7693;49.266;7.104;2023-04-06T08:56:21;8.70;97.20
15184;DHT22;7693;49.266;7.104;2023-04-06T08:58:47;8.80;97.30
15184;DHT22;7693;49.266;7.104;2023-04-06T09:01:14;8.90;97.10
15184;DHT22;7693;49.266;7.104;2023-04-06T09:03:43;9.00;97.00
15184;DHT22;7693;49.266;7.104;2023-04-06T09:06:09;9.20;97.20
15184;DHT22;7693;49.266;7.104;2023-04-06T09:08:37;9.30;97.00
15184;DHT22;7693;49.266;7.104;2023-04-06T09:11:03;9.40;96.90
15184;DHT22;7693;49.266;7.104;2023-04-06T09:13:29;9.40;96.40
15184;DHT22;7693;49.266;7.104;2023-04-06T09:16:02;9.40;96.80
15184;DHT22;7693;49.266;7.104;2023-04-06T09:18:31;9.50;96.50
15184;DHT22;7693;49.266;7.104;2023-04-06T09:21:01;9.60;97.20
15184;DHT22;7693;49.266;7.104;2023-04-06T09:23:27;9.70;96.90
15184;DHT22;7693;49.266;7.104;2023-04-06T09:26:05;9.80;96.80
15184;DHT22;7693;49.266;7.104;2023-04-06T09:31:14;9.90;96.00
15184;DHT22;7693;49.266;7.104;2023-04-06T09:33:44;9.90;96.50
15184;DHT22;7693;49.266;7.104;2023-04-06T09:36:11;10.00;96.40
15184;DHT22;7693;49.266;7.104;2023-04-06T12:10:37;12.30;92.50
15184;DHT22;7693;49.266;7.104;2023-04-06T12:13:03;12.30;92.50
15184;DHT22;7693;49.266;7.104;2023-04-06T12:15:29;12.30;92.60
15184;DHT22;7693;49.266;7.104;2023-04-06T12:17:54;12.40;92.50
15184;DHT22;7693;49.266;7.104;2023-04-06T12:20:20;12.40;92.60
15184;DHT22;7693;49.266;7.104;2023-04-06T12:22:45;12.50;93.10
15184;DHT22;7693;49.266;7.104;2023-04-06T12:25:11;12.60;92.90
15184;DHT22;7693;49.266;7.104;2023-04-06T12:27:40;12.70;92.90
15184;DHT22;7693;49.266;7.104;2023-04-06T12:30:06;12.80;92.60
15184;DHT22;7693;49.266;7.104;2023-04-06T12:32:32;12.70;92.50
15184;DHT22;7693;49.266;7.104;2023-04-06T12:34:57;12.80;92.70
15184;DHT22;7693;49.266;7.104;2023-04-06T12:37:23;12.80;92.60
15184;DHT22;7693;49.266;7.104;2023-04-06T12:39:48;12.80;92.30
15184;DHT22;7693;49.266;7.104;2023-04-06T12:42:14;12.70;92.20
15184;DHT22;7693;49.266;7.104;2023-04-06T12:44:40;12.70;92.40
15184;DHT22;7693;49.266;7.104;2023-04-06T12:47:07;12.70;92.60
15184;DHT22;7693;49.266;7.104;2023-04-06T12:49:33;12.70;92.60
15184;DHT22;7693;49.266;7.104;2023-04-06T12:51:59;12.80;92.60
15184;DHT22;7693;49.266;7.104;2023-04-06T12:54:25;12.80;92.40
15184;DHT22;7693;49.266;7.104;2023-04-06T12:56:52;12.80;92.40
15184;DHT22;7693;49.266;7.104;2023-04-06T12:59:17;12.80;92.60
15184;DHT22;7693;49.266;7.104;2023-04-06T13:01:43;12.80;92.30
15184;DHT22;7693;49.266;7.104;2023-04-06T13:04:09;12.80;92.30
15184;DHT22;7693;49.266;7.104;2023-04-06T13:06:35;12.80;92.20
15184;DHT22;7693;49.266;7.104;2023-04-06T13:09:00;12.80;92.20
15184;DHT22;7693;49.266;7.104;2023-04-06T13:11:26;12.70;92.20
15184;DHT22;7693;49.266;7.104;2023-04-06T13:13:52;12.70;92.40
15184;DHT22;7693;49.266;7.104;2023-04-06T13:16:17;12.80;92.50
15184;DHT22;7693;49.266;7.104;2023-04-06T13:18:43;12.80;92.20
15184;DHT22;7693;49.266;7.104;2023-04-06T13:21:09;12.80;92.30
15184;DHT22;7693;49.266;7.104;2023-04-06T13:23:39;12.80;92.20
15184;DHT22;7693;49.266;7.104;2023-04-06T13:26:06;12.80;92.20
15184;DHT22;7693;49.266;7.104;2023-04-06T13:28:34;12.80;92.20
15184;DHT22;7693;49.266;7.104;2023-04-06T13:31:00;12.80;92.20
15184;DHT22;7693;49.266;7.104;2023-04-06T13:33:27;12.80;92.00
15184;DHT22;7693;49.266;7.104;2023-04-06T13:35:53;12.80;91.90
15184;DHT22;7693;49.266;7.104;2023-04-06T13:38:19;12.70;91.90
15184;DHT22;7693;49.266;7.104;2023-04-06T13:40:44;12.60;91.80
15184;DHT22;7693;49.266;7.104;2023-04-06T13:43:10;12.60;91.90
15184;DHT22;7693;49.266;7.104;2023-04-06T13:45:37;12.60;91.90
15184;DHT22;7693;49.266;7.104;2023-04-06T13:48:03;12.40;91.70
15184;DHT22;7693;49.266;7.104;2023-04-06T13:50:29;12.40;91.90
15184;DHT22;7693;49.266;7.104;2023-04-06T13:52:55;12.40;92.20
15184;DHT22;7693;49.266;7.104;2023-04-06T13:55:21;12.40;92.00
15184;DHT22;7693;49.266;7.104;2023-04-06T13:57:46;12.40;92.10
15184;DHT22;7693;49.266;7.104;2023-04-06T14:00:12;12.40;92.10
15184;DHT22;7693;49.266;7.104;2023-04-06T14:02:40;12.40;92.10
15184;DHT22;7693;49.266;7.104;2023-04-06T14:05:05;12.50;92.20
15184;DHT22;7693;49.266;7.104;2023-04-06T14:07:31;12.40;92.20
15184;DHT22;7693;49.266;7.104;2023-04-06T14:09:57;12.50;92.20
15184;DHT22;7693;49.266;7.104;2023-04-06T14:12:23;12.40;92.00
15184;DHT22;7693;49.266;7.104;2023-04-06T14:14:48;12.40;91.90
15184;DHT22;7693;49.266;7.104;2023-04-06T14:17:14;12.30;91.90
15184;DHT22;7693;49.266;7.104;2023-04-06T14:19:40;12.30;91.70
15184;DHT22;7693;49.266;7.104;2023-04-06T14:22:05;12.10;91.70
15184;DHT22;7693;49.266;7.104;2023-04-06T14:24:31;12.10;91.70
15184;DHT22;7693;49.266;7.104;2023-04-06T14:26:57;12.00;91.80
15184;DHT22;7693;49.266;7.104;2023-04-06T14:29:23;11.90;91.90
15184;DHT22;7693;49.266;7.104;2023-04-06T14:31:49;11.80;92.20
15184;DHT22;7693;49.266;7.104;2023-04-06T14:34:14;11.80;92.30
15184;DHT22;7693;49.266;7.104;2023-04-06T14:36:42;11.70;92.40
15184;DHT22;7693;49.266;7.104;2023-04-06T14:39:07;11.60;92.40
15184;DHT22;7693;49.266;7.104;2023-04-06T14:41:33;11.60;92.60
15184;DHT22;7693;49.266;7.104;2023-04-06T14:44:00;11.60;92.80
15184;DHT22;7693;49.266;7.104;2023-04-06T14:46:26;11.70;93.00
15184;DHT22;7693;49.266;7.104;2023-04-06T14:48:55;11.70;93.10
15184;DHT22;7693;49.266;7.104;2023-04-06T14:51:23;11.70;93.00
15184;DHT22;7693;49.266;7.104;2023-04-06T14:53:49;11.70;92.90
15184;DHT22;7693;49.266;7.104;2023-04-06T14:56:20;11.60;93.00
15184;DHT22;7693;49.266;7.104;2023-04-06T14:58:46;11.60;93.10
15184;DHT22;7693;49.266;7.104;2023-04-06T15:01:12;11.50;93.00
15184;DHT22;7693;49.266;7.104;2023-04-06T15:03:37;11.50;93.00
15184;DHT22;7693;49.266;7.104;2023-04-06T15:06:03;11.40;92.90
15184;DHT22;7693;49.266;7.104;2023-04-06T15:08:28;11.40;93.00
15184;DHT22;7693;49.266;7.104;2023-04-06T15:10:59;11.30;93.00
15184;DHT22;7693;49.266;7.104;2023-04-06T15:13:24;11.10;93.00
15184;DHT22;7693;49.266;7.104;2023-04-06T15:15:51;11.10;93.20
15184;DHT22;7693;49.266;7.104;2023-04-06T15:18:16;11.00;93.40
15184;DHT22;7693;49.266;7.104;2023-04-06T15:20:42;11.00;93.50
15184;DHT22;7693;49.266;7.104;2023-04-06T15:23:08;11.00;93.60
15184;DHT22;7693;49.266;7.104;2023-04-06T15:25:34;11.00;93.90
15184;DHT22;7693;49.266;7.104;2023-04-06T15:28:00;10.90;93.80
15184;DHT22;7693;49.266;7.104;2023-04-06T15:30:25;10.90;94.10
15184;DHT22;7693;49.266;7.104;2023-04-06T15:32:59;10.90;94.20
15184;DHT22;7693;49.266;7.104;2023-04-06T15:35:29;10.80;94.40
15184;DHT22;7693;49.266;7.104;2023-04-06T15:37:57;10.80;94.30
15184;DHT22;7693;49.266;7.104;2023-04-06T15:40:24;10.80;94.70
15184;DHT22;7693;49.266;7.104;2023-04-06T15:42:50;10.80;94.90
15184;DHT22;7693;49.266;7.104;2023-04-06T15:45:16;10.70;94.80
15184;DHT22;7693;49.266;7.104;2023-04-06T15:47:43;10.70;94.90
15184;DHT22;7693;49.266;7.104;2023-04-06T15:50:09;10.60;95.10
15184;DHT22;7693;49.266;7.104;2023-04-06T15:52:34;10.60;95.40
15184;DHT22;7693;49.266;7.104;2023-04-06T15:55:02;10.60;95.40
15184;DHT22;7693;49.266;7.104;2023-04-06T15:57:28;10.60;95.70
15184;DHT22;7693;49.266;7.104;2023-04-06T15:59:54;10.50;95.50
15184;DHT22;7693;49.266;7.104;2023-04-06T16:02:20;10.50;95.50
15184;DHT22;7693;49.266;7.104;2023-04-06T16:04:48;10.40;95.70
15184;DHT22;7693;49.266;7.104;2023-04-06T16:07:13;10.40;96.00
15184;DHT22;7693;49.266;7.104;2023-04-06T16:09:39;10.40;96.20
15184;DHT22;7693;49.266;7.104;2023-04-06T16:12:05;10.30;96.20
15184;DHT22;7693;49.266;7.104;2023-04-06T16:14:31;10.30;96.20
15184;DHT22;7693;49.266;7.104;2023-04-06T16:16:56;10.20;96.50
15184;DHT22;7693;49.266;7.104;2023-04-06T16:19:22;10.20;96.40
15184;DHT22;7693;49.266;7.104;2023-04-06T16:21:47;10.10;96.60
15184;DHT22;7693;49.266;7.104;2023-04-06T16:24:13;10.10;96.90
15184;DHT22;7693;49.266;7.104;2023-04-06T16:26:38;10.10;97.00
15184;DHT22;7693;49.266;7.104;2023-04-06T16:29:04;10.10;97.00
15184;DHT22;7693;49.266;7.104;2023-04-06T16:31:31;10.10;97.00
15184;DHT22;7693;49.266;7.104;2023-04-06T16:33:57;10.00;97.20
15184;DHT22;7693;49.266;7.104;2023-04-06T16:36:24;10.00;97.40
15184;DHT22;7693;49.266;7.104;2023-04-06T16:38:51;10.00;97.50
15184;DHT22;7693;49.266;7.104;2023-04-06T16:41:17;10.00;97.70
15184;DHT22;7693;49.266;7.104;2023-04-06T16:43:43;10.00;97.80
15184;DHT22;7693;49.266;7.104;2023-04-06T16:46:08;10.00;97.80
15184;DHT22;7693;49.266;7.104;2023-04-06T16:48:34;9.90;97.80
15184;DHT22;7693;49.266;7.104;2023-04-06T16:51:05;9.90;98.00
15184;DHT22;7693;49.266;7.104;2023-04-06T16:53:31;9.90;98.20
15184;DHT22;7693;49.266;7.104;2023-04-06T16:55:56;9.80;98.30
15184;DHT22;7693;49.266;7.104;2023-04-06T16:58:22;9.80;98.30
15184;DHT22;7693;49.266;7.104;2023-04-06T17:00:47;9.80;98.60
15184;DHT22;7693;49.266;7.104;2023-04-06T17:03:13;9.80;98.70
15184;DHT22;7693;49.266;7.104;2023-04-06T17:05:38;9.80;98.70
15184;DHT22;7693;49.266;7.104;2023-04-06T17:08:04;9.80;98.80
15184;DHT22;7693;49.266;7.104;2023-04-06T17:10:30;9.70;98.90
15184;DHT22;7693;49.266;7.104;2023-04-06T17:12:56;9.70;99.10
15184;DHT22;7693;49.266;7.104;2023-04-06T17:15:21;9.70;99.20
15184;DHT22;7693;49.266;7.104;2023-04-06T17:17:49;9.60;99.30
15184;DHT22;7693;49.266;7.104;2023-04-06T17:20:15;9.70;99.50
15184;DHT22;7693;49.266;7.104;2023-04-06T17:22:40;9.60;99.50
15184;DHT22;7693;49.266;7.104;2023-04-06T17:25:07;9.60;99.60
15184;DHT22;7693;49.266;7.104;2023-04-06T17:27:33;9.60;99.90
15184;DHT22;7693;49.266;7.104;2023-04-06T17:29:58;9.60;99.90
15184;DHT22;7693;49.266;7.104;2023-04-06T17:32:30;9.60;99.90
15184;DHT22;7693;49.266;7.104;2023-04-06T17:34:56;9.50;99.90
15184;DHT22;7693;49.266;7.104;2023-04-06T17:37:22;9.50;99.90
15184;DHT22;7693;49.266;7.104;2023-04-06T17:39:48;9.50;99.90
15184;DHT22;7693;49.266;7.104;2023-04-06T17:42:13;9.40;99.90
15184;DHT22;7693;49.266;7.104;2023-04-06T17:44:39;9.40;99.90
15184;DHT22;7693;49.266;7.104;2023-04-06T17:47:04;9.30;99.90
15184;DHT22;7693;49.266;7.104;2023-04-06T17:49:30;9.20;99.90
15184;DHT22;7693;49.266;7.104;2023-04-06T17:51:56;9.10;99.90
15184;DHT22;7693;49.266;7.104;2023-04-06T17:54:21;9.10;99.90
15184;DHT22;7693;49.266;7.104;2023-04-06T17:56:47;9.00;99.90
15184;DHT22;7693;49.266;7.104;2023-04-06T17:59:14;9.00;99.90
15184;DHT22;7693;49.266;7.104;2023-04-06T18:01:40;8.90;99.90
15184;DHT22;7693;49.266;7.104;2023-04-06T18:04:05;8.90;99.90
15184;DHT22;7693;49.266;7.104;2023-04-06T18:06:31;8.80;99.90
15184;DHT22;7693;49.266;7.104;2023-04-06T18:08:58;8.80;99.90
15184;DHT22;7693;49.266;7.104;2023-04-06T18:11:24;8.80;99.90
15184;DHT22;7693;49.266;7.104;2023-04-06T18:13:51;8.80;99.90
15184;DHT22;7693;49.266;7.104;2023-04-06T18:16:17;8.80;99.90
15184;DHT22;7693;49.266;7.104;2023-04-06T18:18:45;8.80;99.90
15184;DHT22;7693;49.266;7.104;2023-04-06T18:21:10;8.80;99.90
15184;DHT22;7693;49.266;7.104;2023-04-06T18:23:36;8.80;99.90
15184;DHT22;7693;49.266;7.104;2023-04-06T18:26:06;8.80;99.90
15184;DHT22;7693;49.266;7.104;2023-04-06T18:28:32;8.80;99.90
15184;DHT22;7693;49.266;7.104;2023-04-06T18:30:58;8.80;99.90
15184;DHT22;7693;49.266;7.104;2023-04-06T18:33:24;8.80;99.90
15184;DHT22;7693;49.266;7.104;2023-04-06T18:35:52;8.70;99.90
15184;DHT22;7693;49.266;7.104;2023-04-06T18:38:19;8.70;99.90
15184;DHT22;7693;49.266;7.104;2023-04-06T18:40:45;8.70;99.90
15184;DHT22;7693;49.266;7.104;2023-04-06T18:43:10;8.70;99.90
15184;DHT22;7693;49.266;7.104;2023-04-06T18:45:36;8.70;99.90
15184;DHT22;7693;49.266;7.104;2023-04-06T18:48:05;8.70;99.90
15184;DHT22;7693;49.266;7.104;2023-04-06T18:50:31;8.70;99.90
15184;DHT22;7693;49.266;7.104;2023-04-06T18:52:57;8.60;99.90
15184;DHT22;7693;49.266;7.104;2023-04-06T18:55:23;8.70;99.90
15184;DHT22;7693;49.266;7.104;2023-04-06T18:57:49;8.60;99.90
15184;DHT22;7693;49.266;7.104;2023-04-06T19:00:15;8.60;99.90
15184;DHT22;7693;49.266;7.104;2023-04-06T19:02:42;8.60;99.90
15184;DHT22;7693;49.266;7.104;2023-04-06T19:05:10;8.60;99.90
15184;DHT22;7693;49.266;7.104;2023-04-06T19:07:36;8.60;99.90
15184;DHT22;7693;49.266;7.104;2023-04-06T19:10:02;8.60;99.90
15184;DHT22;7693;49.266;7.104;2023-04-06T19:12:28;8.60;99.90
15184;DHT22;7693;49.266;7.104;2023-04-06T19:14:53;8.60;99.90
15184;DHT22;7693;49.266;7.104;2023-04-06T19:17:19;8.60;99.90
15184;DHT22;7693;49.266;7.104;2023-04-06T19:19:45;8.60;99.90
15184;DHT22;7693;49.266;7.104;2023-04-06T19:22:11;8.50;99.90
15184;DHT22;7693;49.266;7.104;2023-04-06T19:24:39;8.50;99.90
15184;DHT22;7693;49.266;7.104;2023-04-06T19:27:07;8.50;99.90
15184;DHT22;7693;49.266;7.104;2023-04-06T19:29:33;8.50;99.90
15184;DHT22;7693;49.266;7.104;2023-04-06T19:31:59;8.50;99.90
15184;DHT22;7693;49.266;7.104;2023-04-06T19:34:25;8.50;99.90
15184;DHT22;7693;49.266;7.104;2023-04-06T19:36:50;8.50;99.90
15184;DHT22;7693;49.266;7.104;2023-04-06T19:39:16;8.50;99.90
15184;DHT22;7693;49.266;7.104;2023-04-06T19:41:42;8.60;99.90
15184;DHT22;7693;49.266;7.104;2023-04-06T19:44:08;8.60;99.90
15184;DHT22;7693;49.266;7.104;2023-04-06T19:46:34;8.60;99.90
15184;DHT22;7693;49.266;7.104;2023-04-06T19:49:00;8.60;99.90
15184;DHT22;7693;49.266;7.104;2023-04-06T19:51:30;8.50;99.90
15184;DHT22;7693;49.266;7.104;2023-04-06T19:53:57;8.60;99.90
15184;DHT22;7693;49.266;7.104;2023-04-06T19:56:22;8.60;99.90
15184;DHT22;7693;49.266;7.104;2023-04-06T19:58:48;8.60;99.90
15184;DHT22;7693;49.266;7.104;2023-04-06T20:01:14;8.50;99.90
15184;DHT22;7693;49.266;7.104;2023-04-06T20:03:39;8.50;99.90
15184;DHT22;7693;49.266;7.104;2023-04-06T20:06:05;8.50;99.90
15184;DHT22;7693;49.266;7.104;2023-04-06T20:08:31;8.50;99.90
15184;DHT22;7693;49.266;7.104;2023-04-06T20:11:01;8.50;99.90
15184;DHT22;7693;49.266;7.104;2023-04-06T20:13:26;8.40;99.90
15184;DHT22;7693;49.266;7.104;2023-04-06T20:15:52;8.40;99.90
15184;DHT22;7693;49.266;7.104;2023-04-06T20:18:17;8.40;99.90
15184;DHT22;7693;49.266;7.104;2023-04-06T20:20:43;8.40;99.90
15184;DHT22;7693;49.266;7.104;2023-04-06T20:23:09;8.40;99.90
15184;DHT22;7693;49.266;7.104;2023-04-06T20:25:37;8.40;99.90
15184;DHT22;7693;49.266;7.104;2023-04-06T20:28:03;8.40;99.90
15184;DHT22;7693;49.266;7.104;2023-04-06T20:30:28;8.40;99.90
15184;DHT22;7693;49.266;7.104;2023-04-06T20:32:54;8.40;99.90
15184;DHT22;7693;49.266;7.104;2023-04-06T20:35:20;8.40;99.90
15184;DHT22;7693;49.266;7.104;2023-04-06T20:37:45;8.40;99.90
15184;DHT22;7693;49.266;7.104;2023-04-06T20:40:11;8.30;99.90
15184;DHT22;7693;49.266;7.104;2023-04-06T20:42:37;8.30;99.90
15184;DHT22;7693;49.266;7.104;2023-04-06T20:45:04;8.30;99.90
15184;DHT22;7693;49.266;7.104;2023-04-06T20:47:30;8.30;99.90
15184;DHT22;7693;49.266;7.104;2023-04-06T20:49:56;8.30;99.90
15184;DHT22;7693;49.266;7.104;2023-04-06T20:52:22;8.30;99.90
15184;DHT22;7693;49.266;7.104;2023-04-06T20:54:48;8.30;99.90
15184;DHT22;7693;49.266;7.104;2023-04-06T20:57:15;8.30;99.90
15184;DHT22;7693;49.266;7.104;2023-04-06T20:59:40;8.30;99.90
15184;DHT22;7693;49.266;7.104;2023-04-06T21:02:06;8.30;99.90
15184;DHT22;7693;49.266;7.104;2023-04-06T21:04:35;8.30;99.90
15184;DHT22;7693;49.266;7.104;2023-04-06T21:07:05;8.30;99.90
15184;DHT22;7693;49.266;7.104;2023-04-06T21:09:34;8.30;99.90
15184;DHT22;7693;49.266;7.104;2023-04-06T21:12:01;8.30;99.90
15184;DHT22;7693;49.266;7.104;2023-04-06T21:14:26;8.30;99.90
15184;DHT22;7693;49.266;7.104;2023-04-06T21:16:52;8.30;99.90
15184;DHT22;7693;49.266;7.104;2023-04-06T21:19:23;8.30;99.90
15184;DHT22;7693;49.266;7.104;2023-04-06T21:21:49;8.40;99.90
15184;DHT22;7693;49.266;7.104;2023-04-06T21:24:14;8.40;99.90
15184;DHT22;7693;49.266;7.104;2023-04-06T21:26:40;8.40;99.90
15184;DHT22;7693;49.266;7.104;2023-04-06T21:29:06;8.40;99.90
15184;DHT22;7693;49.266;7.104;2023-04-06T21:31:32;8.40;99.90
15184;DHT22;7693;49.266;7.104;2023-04-06T21:33:59;8.40;99.90
15184;DHT22;7693;49.266;7.104;2023-04-06T21:36:25;8.40;99.90
15184;DHT22;7693;49.266;7.104;2023-04-06T21:38:51;8.40;99.90
15184;DHT22;7693;49.266;7.104;2023-04-06T21:41:16;8.40;99.90
15184;DHT22;7693;49.266;7.104;2023-04-06T21:43:42;8.50;99.90
15184;DHT22;7693;49.266;7.104;2023-04-06T21:46:07;8.50;99.90
15184;DHT22;7693;49.266;7.104;2023-04-06T21:48:33;8.50;99.90
15184;DHT22;7693;49.266;7.104;2023-04-06T21:50:58;8.50;99.90
15184;DHT22;7693;49.266;7.104;2023-04-06T21:53:24;8.50;99.90
15184;DHT22;7693;49.266;7.104;2023-04-06T21:55:50;8.40;99.90
15184;DHT22;7693;49.266;7.104;2023-04-06T21:58:15;8.40;99.90
15184;DHT22;7693;49.266;7.104;2023-04-06T22:00:41;8.40;99.90
